sensor_id;sensor_type;location;lat;lon;timestamp;pressure;altitude;pressure_sealevel;temperature;humidity
18472;BME280;9365;48.258;12.518;2022-08-07T00:00:57;1025.3392007455684;;;18.36;94.47810842873608
18472;BME280;9365;48.258;12.518;2022-08-07T00:01:58;1025.3764612938367;;;18.34;94.64180709316234
18472;BME280;9365;48.258;12.518;2022-08-07T00:02:59;1025.3353464077204;;;18.29;94.85566381382009
18472;BME280;9365;48.258;12.518;2022-08-07T00:04:00;1025.3759252631753;;;18.28;95.01016920630255
18472;BME280;9365;48.258;12.518;2022-08-07T00:05:02;1025.271627866463;;;18.26;94.96021403007256
18472;BME280;9365;48.258;12.518;2022-08-07T00:06:03;1025.2245675049378;;;18.24;95.28098566123624
18472;BME280;9365;48.258;12.518;2022-08-07T00:07:04;1025.3004215100123;;;18.23;95.23791460276477
18472;BME280;9365;48.258;12.518;2022-08-07T00:08:05;1025.3009934020888;;;18.22;95.27864064134461
18472;BME280;9365;48.258;12.518;2022-08-07T00:09:06;1025.2883142029318;;;18.21;95.28806792480304
18472;BME280;9365;48.258;12.518;2022-08-07T00:10:08;1025.3418885333122;;;18.2;95.4487568089814
18472;BME280;9365;48.258;12.518;2022-08-07T00:11:09;1025.3461151736333;;;18.21;95.50125081319932
18472;BME280;9365;48.258;12.518;2022-08-07T00:12:10;1025.3635926385114;;;18.21;95.47550805965905
18472;BME280;9365;48.258;12.518;2022-08-07T00:13:11;1025.4081421076814;;;18.2;95.34965489477072
18472;BME280;9365;48.258;12.518;2022-08-07T00:14:12;1025.3466858738784;;;18.2;95.46894774703549
18472;BME280;9365;48.258;12.518;2022-08-07T00:15:13;1025.4436672387553;;;18.2;95.17718898822811
18472;BME280;9365;48.258;12.518;2022-08-07T00:16:14;1025.3785539412656;;;18.19;95.07085983560893
18472;BME280;9365;48.258;12.518;2022-08-07T00:17:15;1025.3726166989522;;;18.21;95.23002020170465
18472;BME280;9365;48.258;12.518;2022-08-07T00:18:16;1025.390664529972;;;18.2;95.4901468025061
18472;BME280;9365;48.258;12.518;2022-08-07T00:19:18;1025.358795148944;;;18.21;95.41358908171799
18472;BME280;9365;48.258;12.518;2022-08-07T00:20:19;1025.3864376863023;;;18.2;95.29682450572687
18472;BME280;9365;48.258;12.518;2022-08-07T00:21:20;1025.4056239787005;;;18.18;95.32543761929463
18472;BME280;9365;48.258;12.518;2022-08-07T00:22:22;1025.3926179042974;;;18.17;95.40263907052135
18472;BME280;9365;48.258;12.518;2022-08-07T00:23:23;1025.4546408281883;;;18.17;95.20932555376747
18472;BME280;9365;48.258;12.518;2022-08-07T00:24:24;1025.3979827101382;;;18.16;95.15061408716018
18472;BME280;9365;48.258;12.518;2022-08-07T00:25:25;1025.4419591849564;;;18.16;94.83277130325563
18472;BME280;9365;48.258;12.518;2022-08-07T00:26:25;1025.3883909485887;;;18.17;94.81811992890957
18472;BME280;9365;48.258;12.518;2022-08-07T00:27:26;1025.423101218254;;;18.18;94.78329197295284
18472;BME280;9365;48.258;12.518;2022-08-07T00:28:27;1025.3393730968278;;;18.18;94.4125630618085
18472;BME280;9365;48.258;12.518;2022-08-07T00:29:28;1025.3870076578003;;;18.19;94.46638641619684
18472;BME280;9365;48.258;12.518;2022-08-07T00:30:29;1025.3731870771073;;;18.2;94.55607069010593
18472;BME280;9365;48.258;12.518;2022-08-07T00:31:30;1025.3875773836946;;;18.18;94.33496438982554
18472;BME280;9365;48.258;12.518;2022-08-07T00:32:31;1025.3616466169224;;;18.18;94.42266710689398
18472;BME280;9365;48.258;12.518;2022-08-07T00:33:33;1025.3709140965475;;;18.16;94.37958465378223
18472;BME280;9365;48.258;12.518;2022-08-07T00:34:35;1025.4022097403263;;;18.16;94.13893455444895
18472;BME280;9365;48.258;12.518;2022-08-07T00:35:36;1025.3514859763206;;;18.13;94.59927188153729
18472;BME280;9365;48.258;12.518;2022-08-07T00:36:37;1025.3562811772867;;;18.12;94.7342281504993
18472;BME280;9365;48.258;12.518;2022-08-07T00:37:38;1025.3368493907212;;;18.09;94.89647340079509
18472;BME280;9365;48.258;12.518;2022-08-07T00:38:39;1025.348377786682;;;18.05;95.2509236025431
18472;BME280;9365;48.258;12.518;2022-08-07T00:39:40;1025.3765681163609;;;18.03;95.35218591811646
18472;BME280;9365;48.258;12.518;2022-08-07T00:40:41;1025.2398720977687;;;18.02;95.1641471710658
18472;BME280;9365;48.258;12.518;2022-08-07T00:41:46;1025.2705927215466;;;18.03;95.13841101490058
18472;BME280;9365;48.258;12.518;2022-08-07T00:42:48;1025.327807545375;;;18.03;95.08660294533165
18472;BME280;9365;48.258;12.518;2022-08-07T00:43:49;1025.3007476856596;;;18.04;94.90509694528144
18472;BME280;9365;48.258;12.518;2022-08-07T00:44:50;1025.286934240682;;;18.04;95.04689228264503
18472;BME280;9365;48.258;12.518;2022-08-07T00:45:50;1025.2514191909981;;;18.05;95.38094224667513
18472;BME280;9365;48.258;12.518;2022-08-07T00:46:51;1025.238171866688;;;18.05;94.94814786222395
18472;BME280;9365;48.258;12.518;2022-08-07T00:47:52;1025.2469504931369;;;18.05;95.13656758661281
18472;BME280;9365;48.258;12.518;2022-08-07T00:48:53;1025.2254916975921;;;18.04;94.89500071527553
18472;BME280;9365;48.258;12.518;2022-08-07T00:49:54;1025.1598236921218;;;18.03;94.70626903100751
18472;BME280;9365;48.258;12.518;2022-08-07T00:50:55;1025.1434852736747;;;18.01;94.6517967013082
18472;BME280;9365;48.258;12.518;2022-08-07T00:51:56;1025.1795650384;;;18.0;94.33235808672272
18472;BME280;9365;48.258;12.518;2022-08-07T00:52:57;1025.1398259040361;;;18.0;94.34278845286686
18472;BME280;9365;48.258;12.518;2022-08-07T00:53:58;1025.140959324623;;;17.99;94.36166790096088
18472;BME280;9365;48.258;12.518;2022-08-07T00:54:59;1025.2528493595569;;;17.97;94.39552907800129
18472;BME280;9365;48.258;12.518;2022-08-07T00:56:00;1025.2322783577395;;;17.95;94.60667041708778
18472;BME280;9365;48.258;12.518;2022-08-07T00:57:01;1025.1888802493297;;;17.94;94.63141353247164
18472;BME280;9365;48.258;12.518;2022-08-07T00:58:02;1025.1888802493297;;;17.94;94.72004927404903
18472;BME280;9365;48.258;12.518;2022-08-07T00:59:03;1025.2015609895816;;;17.94;94.55941181752259
18472;BME280;9365;48.258;12.518;2022-08-07T01:00:04;1025.2412964859332;;;17.94;94.39776949840451
18472;BME280;9365;48.258;12.518;2022-08-07T01:01:06;1025.240732469608;;;17.95;94.15888594528565
18472;BME280;9365;48.258;12.518;2022-08-07T01:02:07;1025.2353766966594;;;17.96;93.86847799040945
18472;BME280;9365;48.258;12.518;2022-08-07T01:03:08;1025.1697140400847;;;17.96;93.9144337521944
18472;BME280;9365;48.258;12.518;2022-08-07T01:04:09;1025.2148061499825;;;17.94;94.12660979791953
18472;BME280;9365;48.258;12.518;2022-08-07T01:05:10;1025.1829594570822;;;17.96;94.19604842229184
18472;BME280;9365;48.258;12.518;2022-08-07T01:06:12;1025.2443952493957;;;17.96;94.26971517576528
18472;BME280;9365;48.258;12.518;2022-08-07T01:07:13;1025.1342044088894;;;17.96;94.21202238302526
18472;BME280;9365;48.258;12.518;2022-08-07T01:08:14;1025.1792975047993;;;17.95;94.09043456853453
18472;BME280;9365;48.258;12.518;2022-08-07T01:09:15;1025.096730727398;;;17.93;94.23414183927075
18472;BME280;9365;48.258;12.518;2022-08-07T01:10:16;1025.2026892524007;;;17.93;93.8847536757808
18472;BME280;9365;48.258;12.518;2022-08-07T01:11:17;1025.1584028159707;;;17.93;93.86875586266558
18472;BME280;9365;48.258;12.518;2022-08-07T01:12:18;1025.1383967989077;;;17.9;93.69827874916075
18472;BME280;9365;48.258;12.518;2022-08-07T01:13:20;1025.1034550879235;;;17.89;93.52552953645508
18472;BME280;9365;48.258;12.518;2022-08-07T01:14:22;1025.081193598269;;;17.9;93.50499430405672
18472;BME280;9365;48.258;12.518;2022-08-07T01:15:23;1025.0789343405108;;;17.93;93.48803771451598
18472;BME280;9365;48.258;12.518;2022-08-07T01:16:24;1025.1268819809884;;;17.94;93.54706241290387
18472;BME280;9365;48.258;12.518;2022-08-07T01:17:25;1025.0829204765166;;;17.94;93.30680826518402
18472;BME280;9365;48.258;12.518;2022-08-07T01:18:26;1025.091373408528;;;17.94;93.28659246656679
18472;BME280;9365;48.258;12.518;2022-08-07T01:19:28;1025.0786940241392;;;17.93;93.12391905857716
18472;BME280;9365;48.258;12.518;2022-08-07T01:20:30;1025.0569963638372;;;17.93;92.94591611737434
18472;BME280;9365;48.258;12.518;2022-08-07T01:21:32;1025.171647579553;;;17.93;92.68995203788255
18472;BME280;9365;48.258;12.518;2022-08-07T01:22:34;1025.108845008165;;;17.94;92.92176618441388
18472;BME280;9365;48.258;12.518;2022-08-07T01:23:35;1025.1643565363538;;;17.97;92.90933604838894
18472;BME280;9365;48.258;12.518;2022-08-07T01:24:36;1025.1505449500182;;;17.98;92.59204163432518
18472;BME280;9365;48.258;12.518;2022-08-07T01:25:38;1025.0885421574087;;;17.98;92.665408302716
18472;BME280;9365;48.258;12.518;2022-08-07T01:26:39;1025.1139003280966;;;17.99;92.52645021026242
18472;BME280;9365;48.258;12.518;2022-08-07T01:27:40;1025.136166241825;;;17.99;92.35915281491934
18472;BME280;9365;48.258;12.518;2022-08-07T01:28:41;1025.070502898801;;;17.98;92.18077637812543
18472;BME280;9365;48.258;12.518;2022-08-07T01:29:43;1025.084315827409;;;17.98;92.2111324194824
18472;BME280;9365;48.258;12.518;2022-08-07T01:30:43;1025.0812226305616;;;17.96;92.02105191121348
18472;BME280;9365;48.258;12.518;2022-08-07T01:31:46;1025.02092196729;;;17.94;92.21679741848794
18472;BME280;9365;48.258;12.518;2022-08-07T01:32:47;1025.047411940417;;;17.94;92.4463715106711
18472;BME280;9365;48.258;12.518;2022-08-07T01:33:48;1025.0347330815089;;;17.93;92.54975806560901
18472;BME280;9365;48.258;12.518;2022-08-07T01:34:48;1025.0744675808473;;;17.93;92.26801950178162
18472;BME280;9365;48.258;12.518;2022-08-07T01:35:50;1025.0829204765166;;;17.94;92.04950727464657
18472;BME280;9365;48.258;12.518;2022-08-07T01:36:51;1025.0817888245583;;;17.95;91.90529784079756
18472;BME280;9365;48.258;12.518;2022-08-07T01:37:52;1025.0383932004434;;;17.94;91.87272258921159
18472;BME280;9365;48.258;12.518;2022-08-07T01:38:53;1025.02092196729;;;17.94;91.95589844402122
18472;BME280;9365;48.258;12.518;2022-08-07T01:39:54;1025.0305068133773;;;17.93;92.06942736329823
18472;BME280;9365;48.258;12.518;2022-08-07T01:40:57;1024.9662231166874;;;17.9;92.42558509081728
18472;BME280;9365;48.258;12.518;2022-08-07T01:41:58;1024.9372061318936;;;17.87;92.5058568666201
18472;BME280;9365;48.258;12.518;2022-08-07T01:42:59;1024.955805767436;;;17.86;92.73898650229762
18472;BME280;9365;48.258;12.518;2022-08-07T01:44:00;1025.0749955497765;;;17.86;92.66074535264772
18472;BME280;9365;48.258;12.518;2022-08-07T01:45:02;1025.0225860707772;;;17.85;92.74845469447628
18472;BME280;9365;48.258;12.518;2022-08-07T01:46:04;1024.9713053936075;;;17.83;92.65689597689095
18472;BME280;9365;48.258;12.518;2022-08-07T01:47:05;1024.9580627487255;;;17.83;92.56822647883038
18472;BME280;9365;48.258;12.518;2022-08-07T01:48:06;1024.958626380986;;;17.82;92.55161805207628
18472;BME280;9365;48.258;12.518;2022-08-07T01:49:07;1024.9019944011334;;;17.81;92.38342929963699
18472;BME280;9365;48.258;12.518;2022-08-07T01:50:08;1024.9244909847407;;;17.8;92.45514917537095
18472;BME280;9365;48.258;12.518;2022-08-07T01:51:10;1024.9459474502385;;;17.81;92.32637171485179
18472;BME280;9365;48.258;12.518;2022-08-07T01:52:12;1024.8932170916091;;;17.81;92.29931007270463
18472;BME280;9365;48.258;12.518;2022-08-07T01:53:14;1024.8895546651374;;;17.8;92.5118820668598
18472;BME280;9365;48.258;12.518;2022-08-07T01:54:18;1024.8382785274246;;;17.77;92.6445980686
18472;BME280;9365;48.258;12.518;2022-08-07T01:55:19;1024.874902037508;;;17.76;92.72057530016592
18472;BME280;9365;48.258;12.518;2022-08-07T01:56:23;1024.8977198235777;;;17.75;92.83401131672257
18472;BME280;9365;48.258;12.518;2022-08-07T01:57:26;1024.8796906009256;;;17.75;92.46961537790702
18472;BME280;9365;48.258;12.518;2022-08-07T01:58:29;1024.9650457166435;;;17.73;93.03543224896934
18472;BME280;9365;48.258;12.518;2022-08-07T01:59:33;1024.93968592199;;;17.71;93.17947761811718
18472;BME280;9365;48.258;12.518;2022-08-07T02:00:36;1024.9185530102607;;;17.7;93.2925518179416
18472;BME280;9365;48.258;12.518;2022-08-07T02:01:41;1024.9317929488254;;;17.7;93.06315983839536
18472;BME280;9365;48.258;12.518;2022-08-07T02:02:44;1024.8840905966;;;17.68;93.20128212368334
18472;BME280;9365;48.258;12.518;2022-08-07T02:03:48;1024.9207009722334;;;17.66;93.44401338277508
18472;BME280;9365;48.258;12.518;2022-08-07T02:04:52;1024.8646368478162;;;17.65;93.5407680992949
18472;BME280;9365;48.258;12.518;2022-08-07T02:05:56;1024.909138315902;;;17.64;93.64435732999583
18472;BME280;9365;48.258;12.518;2022-08-07T02:06:58;1024.9144815207403;;;17.63;93.96063090581812
18472;BME280;9365;48.258;12.518;2022-08-07T02:08:02;1024.9764463584136;;;17.63;94.03847114593725
18472;BME280;9365;48.258;12.518;2022-08-07T02:09:04;1024.931946742965;;;17.63;94.41431777386707
18472;BME280;9365;48.258;12.518;2022-08-07T02:10:07;1024.8758828995542;;;17.61;94.32863170011801
18472;BME280;9365;48.258;12.518;2022-08-07T02:11:08;1024.9499696932232;;;17.63;94.44491900186549
18472;BME280;9365;48.258;12.518;2022-08-07T02:12:09;1024.8440632342424;;;17.63;94.72627671366548
18472;BME280;9365;48.258;12.518;2022-08-07T02:13:11;1024.8747664401408;;;17.63;94.14302287951416
18472;BME280;9365;48.258;12.518;2022-08-07T02:14:13;1024.8668715026283;;;17.62;94.4748562674281
18472;BME280;9365;48.258;12.518;2022-08-07T02:15:16;1024.857860009167;;;17.62;94.55855327850779
18472;BME280;9365;48.258;12.518;2022-08-07T02:16:21;1024.8356102401524;;;17.62;94.58493667102549
18472;BME280;9365;48.258;12.518;2022-08-07T02:17:23;1024.7953364151454;;;17.63;94.58593293707865
18472;BME280;9365;48.258;12.518;2022-08-07T02:18:25;1024.839277869432;;;17.63;94.75299320529562
18472;BME280;9365;48.258;12.518;2022-08-07T02:19:27;1024.795895733364;;;17.62;94.53283357200941
18472;BME280;9365;48.258;12.518;2022-08-07T02:20:29;1024.809133897249;;;17.62;94.69435050621473
18472;BME280;9365;48.258;12.518;2022-08-07T02:21:31;1024.8573015239592;;;17.63;94.39281309425888
18472;BME280;9365;48.258;12.518;2022-08-07T02:22:33;1024.8350514049425;;;17.63;94.12217859163216
18472;BME280;9365;48.258;12.518;2022-08-07T02:23:36;1024.8139192192584;;;17.62;93.43782764229404
18472;BME280;9365;48.258;12.518;2022-08-07T02:24:38;1024.7530739322033;;;17.6;93.24335492946923
18472;BME280;9365;48.258;12.518;2022-08-07T02:25:40;1024.8102514767227;;;17.61;93.45216092601787
18472;BME280;9365;48.258;12.518;2022-08-07T02:26:41;1024.7494067443643;;;17.59;93.1273897245945
18472;BME280;9365;48.258;12.518;2022-08-07T02:27:43;1024.8029151161734;;;17.58;93.34010918120285
18472;BME280;9365;48.258;12.518;2022-08-07T02:28:45;1024.7203819863114;;;17.57;93.07203117442113
18472;BME280;9365;48.258;12.518;2022-08-07T02:29:47;1024.706586254273;;;17.57;92.97918264678769
18472;BME280;9365;48.258;12.518;2022-08-07T02:30:49;1024.7378452385371;;;17.57;92.95247544777648
18472;BME280;9365;48.258;12.518;2022-08-07T02:31:51;1024.740308640022;;;17.53;92.87985271102744
18472;BME280;9365;48.258;12.518;2022-08-07T02:32:52;1024.737752331178;;;17.51;92.99128026593125
18472;BME280;9365;48.258;12.518;2022-08-07T02:33:53;1024.786468558258;;;17.5;93.16813963962385
18472;BME280;9365;48.258;12.518;2022-08-07T02:34:56;1024.8368482729659;;;17.48;93.24305841465166
18472;BME280;9365;48.258;12.518;2022-08-07T02:35:57;1024.7723365701252;;;17.46;93.24534632478762
18472;BME280;9365;48.258;12.518;2022-08-07T02:36:58;1024.8078136179759;;;17.45;93.20333817322366
18472;BME280;9365;48.258;12.518;2022-08-07T02:38:01;1024.7579924720874;;;17.47;93.14829203063829
18472;BME280;9365;48.258;12.518;2022-08-07T02:39:03;1024.81460482221;;;17.48;92.76917324360903
18472;BME280;9365;48.258;12.518;2022-08-07T02:40:07;1024.786468558258;;;17.5;92.73037713188269
18472;BME280;9365;48.258;12.518;2022-08-07T02:41:08;1024.7684503544208;;;17.51;92.67890160909971
18472;BME280;9365;48.258;12.518;2022-08-07T02:42:12;1024.7721207618642;;;17.52;92.58636895669895
18472;BME280;9365;48.258;12.518;2022-08-07T02:43:13;1024.7800174284419;;;17.53;92.55669919813069
18472;BME280;9365;48.258;12.518;2022-08-07T02:44:15;1024.7958098008407;;;17.56;92.35139159476687
18472;BME280;9365;48.258;12.518;2022-08-07T02:45:17;1024.7505240300975;;;17.58;92.40610452463737
18472;BME280;9365;48.258;12.518;2022-08-07T02:46:20;1024.7727721175725;;;17.57;92.20246525380824
18472;BME280;9365;48.258;12.518;2022-08-07T02:47:23;1024.7290676617079;;;17.56;92.35235013097676
18472;BME280;9365;48.258;12.518;2022-08-07T02:48:24;1024.7206152175124;;;17.56;92.02848548974083
18472;BME280;9365;48.258;12.518;2022-08-07T02:49:25;1024.716947058584;;;17.55;92.25138562855632
18472;BME280;9365;48.258;12.518;2022-08-07T02:50:26;1024.6597746030732;;;17.55;92.02689707492229
18472;BME280;9365;48.258;12.518;2022-08-07T02:51:27;1024.650764009146;;;17.55;92.12626887731348
18472;BME280;9365;48.258;12.518;2022-08-07T02:52:32;1024.6470966402019;;;17.54;92.13020903427052
18472;BME280;9365;48.258;12.518;2022-08-07T02:53:35;1024.6470966402019;;;17.54;91.81740407262882
18472;BME280;9365;48.258;12.518;2022-08-07T02:54:38;1024.6127307829147;;;17.53;91.53427975515474
18472;BME280;9365;48.258;12.518;2022-08-07T02:55:41;1024.6296343477602;;;17.54;91.74930964210559
18472;BME280;9365;48.258;12.518;2022-08-07T02:56:43;1024.6096213293997;;;17.51;91.88659125282757
18472;BME280;9365;48.258;12.518;2022-08-07T02:57:46;1024.6431041000928;;;17.47;91.64235721445557
18472;BME280;9365;48.258;12.518;2022-08-07T02:58:48;1024.5563568398034;;;17.45;91.71802496779097
18472;BME280;9365;48.258;12.518;2022-08-07T02:59:50;1024.5720467372062;;;17.41;91.56209749278777
18472;BME280;9365;48.258;12.518;2022-08-07T03:00:52;1024.5858356491822;;;17.41;91.40998582331201
18472;BME280;9365;48.258;12.518;2022-08-07T03:01:54;1024.5376830194364;;;17.4;91.49797128516256
18472;BME280;9365;48.258;12.518;2022-08-07T03:02:55;1024.582719089643;;;17.39;91.32438337144468
18472;BME280;9365;48.258;12.518;2022-08-07T03:03:57;1024.5297864021343;;;17.39;91.00118277839215
18472;BME280;9365;48.258;12.518;2022-08-07T03:04:59;1024.5509164554223;;;17.4;91.32595313114685
18472;BME280;9365;48.258;12.518;2022-08-07T03:06:01;1024.6032954333605;;;17.41;90.98803941529734
18472;BME280;9365;48.258;12.518;2022-08-07T03:07:02;1024.5323456142344;;;17.41;90.96780941689319
18472;BME280;9365;48.258;12.518;2022-08-07T03:08:04;1024.5407974588634;;;17.42;90.94757880329864
18472;BME280;9365;48.258;12.518;2022-08-07T03:09:05;1024.5126597306635;;;17.44;90.77310793958215
18472;BME280;9365;48.258;12.518;2022-08-07T03:10:07;1024.4861911734242;;;17.44;90.63753703975979
18472;BME280;9365;48.258;12.518;2022-08-07T03:11:09;1024.5070868117239;;;17.46;90.50967267252834
18472;BME280;9365;48.258;12.518;2022-08-07T03:12:11;1024.4980776926366;;;17.47;90.46304792674539
18472;BME280;9365;48.258;12.518;2022-08-07T03:13:12;1024.503418802634;;;17.45;90.346776254959
18472;BME280;9365;48.258;12.518;2022-08-07T03:14:14;1024.4642731969025;;;17.45;90.2780574420888
18472;BME280;9365;48.258;12.518;2022-08-07T03:15:15;1024.4409132970384;;;17.46;90.10289201520891
18472;BME280;9365;48.258;12.518;2022-08-07T03:16:16;1024.489626513902;;;17.46;89.86266680039417
18472;BME280;9365;48.258;12.518;2022-08-07T03:17:18;1024.4848429293138;;;17.47;89.63898812744144
18472;BME280;9365;48.258;12.518;2022-08-07T03:18:19;1024.4065521601444;;;17.45;89.37113395131294
18472;BME280;9365;48.258;12.518;2022-08-07T03:19:20;1024.4476036411859;;;17.43;88.9875822453185
18472;BME280;9365;48.258;12.518;2022-08-07T03:20:22;1024.471515915121;;;17.4;88.6246187346869
18472;BME280;9365;48.258;12.518;2022-08-07T03:21:23;1024.4799673363093;;;17.41;88.7191226400228
18472;BME280;9365;48.258;12.518;2022-08-07T03:22:24;1024.4647321732918;;;17.37;88.71523397911758
18472;BME280;9365;48.258;12.518;2022-08-07T03:23:25;1024.518218219649;;;17.37;88.74041889850447
18472;BME280;9365;48.258;12.518;2022-08-07T03:24:27;1024.4514993611876;;;17.37;88.69436758671286
18472;BME280;9365;48.258;12.518;2022-08-07T03:25:28;1024.5134374883878;;;17.37;88.52191679565564
18472;BME280;9365;48.258;12.518;2022-08-07T03:26:32;1024.521334444805;;;17.38;88.41906528479767
18472;BME280;9365;48.258;12.518;2022-08-07T03:27:33;1024.5007595920708;;;17.36;88.10887250088244
18472;BME280;9365;48.258;12.518;2022-08-07T03:28:35;1024.4700685388393;;;17.36;88.17640209782581
18472;BME280;9365;48.258;12.518;2022-08-07T03:29:37;1024.518772722469;;;17.36;87.55519537472952
18472;BME280;9365;48.258;12.518;2022-08-07T03:30:39;1024.4123569905194;;;17.37;87.37864566563007
18472;BME280;9365;48.258;12.518;2022-08-07T03:31:40;1024.3985681631757;;;17.37;87.42126949084623
18472;BME280;9365;48.258;12.518;2022-08-07T03:32:42;1024.4208081557645;;;17.37;87.36879143920928
18472;BME280;9365;48.258;12.518;2022-08-07T03:33:46;1024.4022371889414;;;17.38;87.30240352393109
18472;BME280;9365;48.258;12.518;2022-08-07T03:34:49;1024.3726591127613;;;17.37;86.70537901842945
18472;BME280;9365;48.258;12.518;2022-08-07T03:35:51;1024.4176939610422;;;17.35;86.0096741432552
18472;BME280;9365;48.258;12.518;2022-08-07T03:36:52;1024.4007914804226;;;17.34;85.59609602256839
18472;BME280;9365;48.258;12.518;2022-08-07T03:37:56;1024.4007914804226;;;17.34;85.5229995190017
18472;BME280;9365;48.258;12.518;2022-08-07T03:38:59;1024.4230300735192;;;17.34;84.97444661019703
18472;BME280;9365;48.258;12.518;2022-08-07T03:40:01;1024.464063743817;;;17.32;84.09976951556274
18472;BME280;9365;48.258;12.518;2022-08-07T03:41:02;1024.4598377959771;;;17.32;84.43376054796313
18472;BME280;9365;48.258;12.518;2022-08-07T03:42:04;1024.4561654500835;;;17.31;83.82157325589687
18472;BME280;9365;48.258;12.518;2022-08-07T03:43:05;1024.460391416667;;;17.31;83.65468900411027
18472;BME280;9365;48.258;12.518;2022-08-07T03:44:07;1024.4831811993467;;;17.3;83.42898377800678
18472;BME280;9365;48.258;12.518;2022-08-07T03:45:08;1024.4986214219905;;;17.27;80.80769074161434
18472;BME280;9365;48.258;12.518;2022-08-07T03:46:09;1024.4383513374335;;;17.25;80.9886137133362
18472;BME280;9365;48.258;12.518;2022-08-07T03:47:11;1024.4732639821143;;;17.25;81.13548448141911
18472;BME280;9365;48.258;12.518;2022-08-07T03:48:12;1024.4462514813993;;;17.26;80.8905691260871
18472;BME280;9365;48.258;12.518;2022-08-07T03:49:13;1024.551543729202;;;17.27;79.86656686807568
18472;BME280;9365;48.258;12.518;2022-08-07T03:50:14;1024.4600337499378;;;17.25;80.28859760833575
18472;BME280;9365;48.258;12.518;2022-08-07T03:51:17;1024.4589297444886;;;17.27;80.29010548102217
18472;BME280;9365;48.258;12.518;2022-08-07T03:52:19;1024.4493726875776;;;17.28;80.37999670089705
18472;BME280;9365;48.258;12.518;2022-08-07T03:53:20;1024.4572719017365;;;17.29;79.98385316962901
18472;BME280;9365;48.258;12.518;2022-08-07T03:54:21;1024.4139062875197;;;17.28;78.99439500400905
18472;BME280;9365;48.258;12.518;2022-08-07T03:55:22;1024.3885512292677;;;17.26;78.12978042782457
18472;BME280;9365;48.258;12.518;2022-08-07T03:56:23;1024.3981085496966;;;17.25;78.20730021837198
18472;BME280;9365;48.258;12.518;2022-08-07T03:57:24;1024.3944351053406;;;17.24;77.58373190806253
18472;BME280;9365;48.258;12.518;2022-08-07T03:58:26;1024.4966001484702;;;17.23;78.00658500070014
18472;BME280;9365;48.258;12.518;2022-08-07T03:59:27;1024.4659141690613;;;17.23;76.83424118090595
18472;BME280;9365;48.258;12.518;2022-08-07T04:00:28;1024.3823095339887;;;17.23;76.9439112863588
18472;BME280;9365;48.258;12.518;2022-08-07T04:01:30;1024.4219987061742;;;17.23;76.82877604637264
18472;BME280;9365;48.258;12.518;2022-08-07T04:02:32;1024.4611367770242;;;17.24;76.61488635139912
18472;BME280;9365;48.258;12.518;2022-08-07T04:03:34;1024.4389030785032;;;17.24;75.87704605368319
18472;BME280;9365;48.258;12.518;2022-08-07T04:04:34;1024.4532354604596;;;17.22;76.03796839366848
18472;BME280;9365;48.258;12.518;2022-08-07T04:05:35;1024.4616879237026;;;17.23;75.74002862451418
18472;BME280;9365;48.258;12.518;2022-08-07T04:06:36;1024.4479068718358;;;17.24;75.7511753441827
18472;BME280;9365;48.258;12.518;2022-08-07T04:07:42;1024.4918229306838;;;17.24;75.59957309650655
18472;BME280;9365;48.258;12.518;2022-08-07T04:08:43;1024.4580125617535;;;17.22;75.26793530986889
18472;BME280;9365;48.258;12.518;2022-08-07T04:09:44;1024.4442319986251;;;17.23;75.3419055027657
18472;BME280;9365;48.258;12.518;2022-08-07T04:10:46;1024.4664650990376;;;17.22;75.3364466117483
18472;BME280;9365;48.258;12.518;2022-08-07T04:11:47;1024.4532354604596;;;17.22;75.44116069919383
18472;BME280;9365;48.258;12.518;2022-08-07T04:12:49;1024.480245267097;;;17.22;74.7807474792787
18472;BME280;9365;48.258;12.518;2022-08-07T04:13:50;1024.4677913169512;;;17.2;74.3761852086094